Time;durP1;ratioP1;P1;durP2;ratioP2;P2;SDS_P1;SDS_P2;PMS_P1;PMS_P2;Temp;Humidity;BMP_temperature;BMP_pressure;BME280_temperature;BME280_humidity;BME280_pressure;Samples;Min_cycle;Max_cycle;Signal;HPM_P1;HPM_P2
2022/02/04 00:21:50;;;;;;;10.68;6.57;;;;;;;;;;5072002;28;20097;-63
2022/02/04 00:24:19;;;;;;;9.02;5.65;;;;;;;;;;5071858;28;20600;-64
2022/02/04 00:26:51;;;;;;;8.65;5.03;;;;;;;;;;5071566;28;20044;-63
2022/02/04 00:29:22;;;;;;;7.75;5.05;;;;;;;;;;5071484;28;20048;-64
2022/02/04 00:31:53;;;;;;;7.63;4.43;;;;;;;;;;5071284;28;20091;-64
2022/02/04 00:34:22;;;;;;;9.15;5.00;;;;;;;;;;5071353;28;20063;-64
2022/02/04 00:37:02;;;;;;;7.10;4.43;;;;;;;;;;5073970;28;20450;-64
2022/02/04 00:39:34;;;;;;;10.30;5.00;;;;;;;;;;5074839;28;20048;-63
2022/02/04 00:42:07;;;;;;;6.75;4.45;;;;;;;;;;5074895;28;20053;-64
2022/02/04 00:44:36;;;;;;;7.63;4.18;;;;;;;;;;5075187;28;20072;-64
2022/02/04 00:47:09;;;;;;;7.75;4.22;;;;;;;;;;5074814;28;20058;-64
2022/02/04 00:49:50;;;;;;;10.38;5.60;;;;;;;;;;5074804;28;20060;-64
2022/02/04 00:52:23;;;;;;;;;;;;;;;;;;5075528;28;20071;-64
2022/02/04 00:54:56;;;;;;;10.10;4.63;;;;;;;;;;5075102;28;20365;-64
2022/02/04 00:57:40;;;;;;;9.73;5.00;;;;;;;;;;5074914;28;20055;-64
2022/02/04 01:27:36;;;;;;;10.32;5.85;;;;;;;;;;5074351;28;20051;-64
2022/02/04 01:30:14;;;;;;;12.30;6.20;;;;;;;;;;5074047;28;20083;-64
2022/02/04 01:32:41;;;;;;;8.60;5.70;;;;;;;;;;5074315;28;20510;-64
2022/02/04 01:35:09;;;;;;;11.27;5.93;;;;;;;;;;5073986;28;20063;-64
2022/02/04 01:37:35;;;;;;;12.15;6.90;;;;;;;;;;5073846;28;20063;-64
2022/02/04 01:40:05;;;;;;;10.75;5.80;;;;;;;;;;5073951;28;20413;-64
2022/02/04 01:42:32;;;;;;;9.68;6.10;;;;;;;;;;5074090;28;20508;-64
2022/02/04 01:44:59;;;;;;;8.52;5.68;;;;;;;;;;5073991;28;20040;-64
2022/02/04 01:47:26;;;;;;;9.52;5.80;;;;;;;;;;5073260;28;20045;-64
2022/02/04 01:49:53;;;;;;;8.80;5.85;;;;;;;;;;5073673;28;20147;-64
2022/02/04 01:52:20;;;;;;;8.60;5.70;;;;;;;;;;5073609;28;20052;-64
2022/02/04 01:54:47;;;;;;;9.90;6.35;;;;;;;;;;5073968;28;20139;-64
2022/02/04 01:57:15;;;;;;;8.27;5.55;;;;;;;;;;5073807;28;20048;-64
2022/02/04 01:59:42;;;;;;;8.63;5.70;;;;;;;;;;5073716;28;20076;-64
2022/02/04 02:02:09;;;;;;;9.18;5.80;;;;;;;;;;5073584;28;20115;-64
2022/02/04 02:04:36;;;;;;;9.05;5.68;;;;;;;;;;5073312;28;20051;-64
2022/02/04 02:07:10;;;;;;;10.38;6.43;;;;;;;;;;5073650;28;20505;-64
2022/02/04 02:09:47;;;;;;;8.55;5.95;;;;;;;;;;5073704;28;20467;-64
2022/02/04 02:12:18;;;;;;;8.65;5.65;;;;;;;;;;5073271;28;20052;-65
2022/02/04 02:14:45;;;;;;;10.65;6.50;;;;;;;;;;5073347;28;20421;-64
2022/02/04 02:34:38;;;;;;;9.48;6.10;;;;;;;;;;5073148;28;20048;-63
2022/02/04 02:45:56;;;;;;;9.95;6.50;;;;;;;;;;5072770;28;20049;-64
2022/02/04 02:48:39;;;;;;;8.70;6.15;;;;;;;;;;5073051;28;20048;-64
2022/02/04 02:51:35;;;;;;;11.70;6.47;;;;;;;;;;5072788;28;20135;-64
2022/02/04 02:54:15;;;;;;;11.23;6.18;;;;;;;;;;5072825;28;20054;-63
2022/02/04 02:59:44;;;;;;;12.18;6.25;;;;;;;;;;5023749;28;20044;-63
2022/02/04 03:02:11;;;;;;;11.63;6.50;;;;;;;;;;5072337;28;20056;-63
2022/02/04 03:04:38;;;;;;;11.18;6.30;;;;;;;;;;5072276;28;20131;-63
2022/02/04 03:07:05;;;;;;;10.32;6.63;;;;;;;;;;5072282;28;20052;-65
2022/02/04 03:09:32;;;;;;;11.48;6.65;;;;;;;;;;5072288;28;20139;-64
2022/02/04 03:12:01;;;;;;;10.93;7.07;;;;;;;;;;5072374;28;20417;-63
2022/02/04 03:14:28;;;;;;;10.55;6.97;;;;;;;;;;5072181;28;20051;-63
2022/02/04 03:16:55;;;;;;;11.02;6.85;;;;;;;;;;5072419;28;20417;-64
2022/02/04 03:19:24;;;;;;;11.85;7.40;;;;;;;;;;5072322;28;20052;-64
2022/02/04 03:21:51;;;;;;;12.35;7.50;;;;;;;;;;5072102;28;20051;-64
2022/02/04 03:24:22;;;;;;;13.02;8.02;;;;;;;;;;5072431;28;20044;-63
2022/02/04 03:26:52;;;;;;;13.80;7.25;;;;;;;;;;5072154;28;20040;-63
2022/02/04 03:29:26;;;;;;;12.80;8.20;;;;;;;;;;5072282;28;20193;-63
2022/02/04 03:31:58;;;;;;;12.82;7.80;;;;;;;;;;5072124;28;20490;-64
2022/02/04 03:34:25;;;;;;;13.32;7.70;;;;;;;;;;5072193;28;20063;-65
2022/02/04 03:36:52;;;;;;;13.50;8.13;;;;;;;;;;5072104;28;20058;-64
2022/02/04 03:39:18;;;;;;;13.85;8.48;;;;;;;;;;5071997;28;20407;-64
2022/02/04 03:41:45;;;;;;;13.73;8.25;;;;;;;;;;5071891;28;20044;-64
2022/02/04 03:44:13;;;;;;;12.70;8.48;;;;;;;;;;5072237;28;20049;-64
2022/02/04 03:46:41;;;;;;;13.77;7.85;;;;;;;;;;5071836;28;20497;-64
2022/02/04 03:49:08;;;;;;;17.52;9.68;;;;;;;;;;5071830;28;20047;-63
2022/02/04 03:51:35;;;;;;;17.33;9.70;;;;;;;;;;5072402;28;20394;-64
2022/02/04 03:54:02;;;;;;;14.25;8.07;;;;;;;;;;5071809;28;20048;-63
2022/02/04 03:56:29;;;;;;;13.35;8.18;;;;;;;;;;5072175;28;20055;-64
2022/02/04 03:58:56;;;;;;;13.35;8.05;;;;;;;;;;5071774;28;20048;-63
2022/02/04 04:01:23;;;;;;;15.60;8.68;;;;;;;;;;5072016;28;20045;-65
2022/02/04 04:03:51;;;;;;;13.13;7.97;;;;;;;;;;5083027;22;20075;-77
2022/02/04 04:06:18;;;;;;;14.68;7.65;;;;;;;;;;5074401;28;20147;-78
2022/02/04 04:08:45;;;;;;;15.57;8.88;;;;;;;;;;5076953;28;20079;-78
2022/02/04 04:11:13;;;;;;;15.82;8.90;;;;;;;;;;5060821;28;20687;-78
2022/02/04 04:13:40;;;;;;;17.33;9.05;;;;;;;;;;5060086;28;20056;-78
2022/02/04 04:16:07;;;;;;;16.55;8.93;;;;;;;;;;5059329;28;20049;-78
2022/02/04 04:18:34;;;;;;;17.38;9.35;;;;;;;;;;5058665;28;20102;-78
2022/02/04 04:21:02;;;;;;;17.17;9.75;;;;;;;;;;5058853;28;20118;-78
2022/02/04 04:23:29;;;;;;;15.30;8.77;;;;;;;;;;5057864;28;20107;-78
2022/02/04 04:25:56;;;;;;;17.73;9.65;;;;;;;;;;5058015;28;20052;-77
2022/02/04 04:28:22;;;;;;;19.42;9.73;;;;;;;;;;5059536;28;20116;-78
2022/02/04 04:30:49;;;;;;;17.13;9.82;;;;;;;;;;5058688;28;20053;-78
2022/02/04 04:33:16;;;;;;;17.27;10.27;;;;;;;;;;5058466;28;20045;-77
2022/02/04 04:35:43;;;;;;;16.35;8.93;;;;;;;;;;5058626;28;20049;-77
2022/02/04 04:38:21;;;;;;;17.25;9.63;;;;;;;;;;5058463;28;20056;-78
2022/02/04 04:41:06;;;;;;;16.15;8.95;;;;;;;;;;5057744;28;20564;-78
2022/02/04 04:43:51;;;;;;;16.73;9.13;;;;;;;;;;5057486;28;20496;-78
2022/02/04 05:30:22;;;;;;;26.70;13.95;;;;;;;;;;5054198;28;20041;-78
2022/02/04 05:32:49;;;;;;;29.40;14.40;;;;;;;;;;5056653;28;20049;-78
2022/02/04 05:35:17;;;;;;;29.38;14.55;;;;;;;;;;5056426;28;20111;-78
2022/02/04 05:37:48;;;;;;;24.50;12.68;;;;;;;;;;5056823;28;20075;-78
2022/02/04 05:40:18;;;;;;;29.60;13.32;;;;;;;;;;5056222;28;20045;-78
2022/02/04 05:42:51;;;;;;;26.05;12.05;;;;;;;;;;5056234;28;20053;-78
2022/02/04 05:45:21;;;;;;;19.60;11.00;;;;;;;;;;5056588;28;20110;-78
2022/02/04 05:47:54;;;;;;;21.55;11.77;;;;;;;;;;5057443;28;20423;-78
2022/02/04 05:50:27;;;;;;;21.15;11.32;;;;;;;;;;5056281;28;20071;-78
2022/02/04 05:53:04;;;;;;;19.40;10.25;;;;;;;;;;5056115;28;20053;-78
2022/02/04 05:55:51;;;;;;;21.65;11.45;;;;;;;;;;5056394;28;20609;-78
2022/02/04 05:58:31;;;;;;;20.73;10.82;;;;;;;;;;5055785;28;20060;-78
2022/02/04 06:01:11;;;;;;;22.23;10.63;;;;;;;;;;5055804;28;20491;-78
2022/02/04 06:03:48;;;;;;;24.90;11.30;;;;;;;;;;5055876;28;20045;-77
2022/02/04 06:06:43;;;;;;;20.35;11.13;;;;;;;;;;5055878;28;20140;-78
2022/02/04 06:12:13;;;;;;;18.50;10.43;;;;;;;;;;5055098;28;20099;-77
2022/02/04 06:14:52;;;;;;;21.42;10.07;;;;;;;;;;5055467;28;20056;-78
2022/02/04 06:22:50;;;;;;;18.67;9.98;;;;;;;;;;5057318;28;20411;-78
2022/02/04 06:25:17;;;;;;;22.52;11.27;;;;;;;;;;5062598;28;20041;-77
2022/02/04 06:27:45;;;;;;;19.95;10.60;;;;;;;;;;5077663;28;20173;-77
2022/02/04 06:30:14;;;;;;;20.73;10.68;;;;;;;;;;5078419;28;20033;-76
2022/02/04 06:32:41;;;;;;;24.55;12.13;;;;;;;;;;5078169;28;20094;-75
2022/02/04 06:35:10;;;;;;;19.65;10.30;;;;;;;;;;5077868;28;20067;-77
2022/02/04 06:37:36;;;;;;;20.27;10.85;;;;;;;;;;5077925;28;20029;-77
2022/02/04 06:40:05;;;;;;;23.60;11.00;;;;;;;;;;5078274;28;20043;-76
2022/02/04 06:42:32;;;;;;;23.48;11.25;;;;;;;;;;5069047;28;20472;-78
2022/02/04 06:44:59;;;;;;;21.90;11.60;;;;;;;;;;5060928;28;20049;-77
2022/02/04 06:47:28;;;;;;;20.60;11.07;;;;;;;;;;5055537;28;20071;-77
2022/02/04 06:49:54;;;;;;;21.73;12.15;;;;;;;;;;5055326;28;20045;-77
2022/02/04 06:52:21;;;;;;;24.20;11.95;;;;;;;;;;5055991;28;20049;-78
2022/02/04 06:54:48;;;;;;;21.15;11.50;;;;;;;;;;5055867;28;20060;-78
2022/02/04 06:57:15;;;;;;;22.45;11.43;;;;;;;;;;5055199;28;20110;-78
2022/02/04 06:59:44;;;;;;;26.10;12.23;;;;;;;;;;5055207;28;20052;-78
2022/02/04 07:02:11;;;;;;;22.45;13.20;;;;;;;;;;5055444;28;20145;-77
2022/02/04 07:04:40;;;;;;;24.30;11.82;;;;;;;;;;5066572;28;20044;-76
2022/02/04 07:07:07;;;;;;;21.90;11.40;;;;;;;;;;5076918;28;20055;-77
2022/02/04 07:09:44;;;;;;;28.52;12.88;;;;;;;;;;5063778;28;20135;-77
2022/02/04 07:12:22;;;;;;;23.02;12.18;;;;;;;;;;5056000;28;20075;-78
2022/02/04 07:15:37;;;;;;;21.88;11.93;;;;;;;;;;5054677;28;20059;-78
2022/02/04 07:18:03;;;;;;;22.95;12.07;;;;;;;;;;5054124;28;20049;-78
2022/02/04 07:20:30;;;;;;;22.27;11.40;;;;;;;;;;5054803;28;20519;-78
2022/02/04 07:22:57;;;;;;;26.02;13.38;;;;;;;;;;5054121;28;20048;-78
2022/02/04 07:25:24;;;;;;;22.80;11.93;;;;;;;;;;5054055;28;20057;-77
2022/02/04 07:27:50;;;;;;;22.88;11.80;;;;;;;;;;5053767;28;20067;-79
2022/02/04 07:30:17;;;;;;;24.05;12.35;;;;;;;;;;5054825;28;20053;-78
2022/02/04 07:32:56;;;;;;;27.23;12.95;;;;;;;;;;5053595;28;20463;-78
2022/02/04 07:38:34;;;;;;;24.10;12.63;;;;;;;;;;5053834;28;20048;-78
2022/02/04 07:38:51;;;;;;;25.90;12.93;;;;;;;;;;5053691;28;20053;-78
2022/02/04 07:41:19;;;;;;;21.67;11.32;;;;;;;;;;5054344;28;20049;-78
2022/02/04 07:43:46;;;;;;;23.00;11.15;;;;;;;;;;5054054;28;20052;-78
2022/02/04 07:46:16;;;;;;;21.13;12.05;;;;;;;;;;5057772;28;20048;-78
2022/02/04 07:48:43;;;;;;;22.20;12.23;;;;;;;;;;5057381;28;20049;-78
2022/02/04 07:51:11;;;;;;;26.15;13.93;;;;;;;;;;5057636;28;20052;-78
2022/02/04 07:53:39;;;;;;;24.70;12.82;;;;;;;;;;5057747;28;20135;-78
2022/02/04 07:56:06;;;;;;;24.05;13.40;;;;;;;;;;5057464;28;20053;-78
2022/02/04 07:58:33;;;;;;;26.98;13.00;;;;;;;;;;5057660;28;20053;-78
2022/02/04 08:01:02;;;;;;;25.80;13.20;;;;;;;;;;5057694;28;20052;-78
2022/02/04 08:03:34;;;;;;;22.75;11.85;;;;;;;;;;5056890;28;20044;-78
2022/02/04 08:06:06;;;;;;;22.77;12.27;;;;;;;;;;5043939;28;20129;-78
2022/02/04 08:08:40;;;;;;;23.27;12.27;;;;;;;;;;5029828;28;20507;-79
2022/02/04 08:11:22;;;;;;;21.05;12.15;;;;;;;;;;5036472;28;20427;-79
2022/02/04 08:19:41;;;;;;;21.27;12.23;;;;;;;;;;5028746;28;20055;-78
2022/02/04 08:33:33;;;;;;;28.55;14.80;;;;;;;;;;5019041;28;20053;-79
2022/02/04 08:39:11;;;;;;;22.67;11.82;;;;;;;;;;5039736;28;20059;-78
2022/02/04 08:47:28;;;;;;;19.83;11.55;;;;;;;;;;5041856;28;20101;-79
2022/02/04 08:53:00;;;;;;;23.05;11.27;;;;;;;;;;5193591;27;20360;-67
2022/02/04 08:55:36;;;;;;;21.38;11.98;;;;;;;;;;5171125;27;20395;-68
2022/02/04 08:58:15;;;;;;;24.20;12.52;;;;;;;;;;5162910;27;20244;-65
2022/02/04 09:00:47;;;;;;;26.75;11.45;;;;;;;;;;5150052;27;20066;-66
2022/02/04 09:03:26;;;;;;;23.48;11.85;;;;;;;;;;5150069;27;20050;-66
2022/02/04 09:06:05;;;;;;;24.00;11.93;;;;;;;;;;5150379;27;20062;-66
2022/02/04 09:08:36;;;;;;;20.85;11.27;;;;;;;;;;5149503;27;20054;-66
2022/02/04 09:11:07;;;;;;;21.50;11.38;;;;;;;;;;5150149;27;20482;-66
2022/02/04 09:19:08;;;;;;;20.52;11.75;;;;;;;;;;5149687;27;20078;-66
2022/02/04 09:21:51;;;;;;;21.58;11.68;;;;;;;;;;5149083;27;20153;-67
2022/02/04 09:24:21;;;;;;;23.42;11.60;;;;;;;;;;5150672;27;20093;-67
2022/02/04 09:26:49;;;;;;;20.02;11.52;;;;;;;;;;5149855;27;20099;-67
2022/02/04 09:29:16;;;;;;;21.17;10.73;;;;;;;;;;5150011;27;20135;-67
2022/02/04 09:31:43;;;;;;;19.30;11.60;;;;;;;;;;5150342;27;20047;-67
2022/02/04 09:34:11;;;;;;;25.52;13.32;;;;;;;;;;5149558;27;20454;-67
2022/02/04 09:36:38;;;;;;;24.85;12.80;;;;;;;;;;5149428;27;20469;-67
2022/02/04 09:39:06;;;;;;;22.50;12.10;;;;;;;;;;5149295;27;20086;-67
2022/02/04 09:41:35;;;;;;;22.27;11.50;;;;;;;;;;5148981;27;20524;-67
2022/02/04 09:44:02;;;;;;;20.75;11.95;;;;;;;;;;5149629;27;20415;-67
2022/02/04 09:46:34;;;;;;;24.35;11.95;;;;;;;;;;5149001;27;20472;-66
2022/02/04 09:49:02;;;;;;;19.70;11.07;;;;;;;;;;5149869;27;20088;-67
2022/02/04 09:51:48;;;;;;;21.58;10.32;;;;;;;;;;5150189;27;20082;-67
2022/02/04 10:08:39;;;;;;;21.08;11.82;;;;;;;;;;5090245;27;20097;-68
2022/02/04 10:14:19;;;;;;;20.20;9.93;;;;;;;;;;5133774;27;20088;-68
2022/02/04 10:17:07;;;;;;;18.13;9.88;;;;;;;;;;5133803;27;20498;-67
2022/02/04 10:19:48;;;;;;;17.92;9.95;;;;;;;;;;5133414;27;20051;-67
2022/02/04 10:22:18;;;;;;;18.70;9.90;;;;;;;;;;5133640;27;20055;-67
2022/02/04 10:24:55;;;;;;;20.38;10.23;;;;;;;;;;5133667;27;20523;-67
2022/02/04 10:27:24;;;;;;;20.52;10.63;;;;;;;;;;5133456;27;20572;-67
2022/02/04 10:29:57;;;;;;;16.85;9.38;;;;;;;;;;5134081;27;20047;-67
2022/02/04 10:32:42;;;;;;;22.77;10.93;;;;;;;;;;5133762;27;20055;-67
2022/02/04 10:35:15;;;;;;;19.92;10.05;;;;;;;;;;5133976;27;20130;-68
2022/02/04 10:37:44;;;;;;;18.48;10.23;;;;;;;;;;5133366;27;20139;-67
2022/02/04 10:40:30;;;;;;;18.13;9.73;;;;;;;;;;5133779;27;20520;-68
2022/02/04 10:43:15;;;;;;;20.88;10.77;;;;;;;;;;5133566;27;20373;-68
2022/02/04 10:45:57;;;;;;;16.77;9.30;;;;;;;;;;5133349;27;20083;-67
2022/02/04 10:51:48;;;;;;;16.88;8.98;;;;;;;;;;5116746;27;20047;-67
2022/02/04 10:55:11;;;;;;;16.70;8.82;;;;;;;;;;5133382;27;20455;-67
2022/02/04 10:58:10;;;;;;;14.32;8.15;;;;;;;;;;5133057;27;20087;-68
2022/02/04 11:01:07;;;;;;;16.83;9.93;;;;;;;;;;5133589;27;20151;-66
2022/02/04 11:03:39;;;;;;;18.60;9.60;;;;;;;;;;5133146;27;20415;-65
2022/02/04 11:06:18;;;;;;;16.60;8.23;;;;;;;;;;5132775;27;20108;-66
2022/02/04 11:08:58;;;;;;;13.00;7.20;;;;;;;;;;5133399;27;20043;-66
2022/02/04 11:11:52;;;;;;;13.73;7.13;;;;;;;;;;5132861;27;20047;-66
2022/02/04 11:31:13;;;;;;;9.65;5.65;;;;;;;;;;5132541;27;20603;-67
2022/02/04 11:34:11;;;;;;;10.85;6.40;;;;;;;;;;5132554;27;20100;-67
2022/02/04 11:37:07;;;;;;;9.60;5.68;;;;;;;;;;5132472;27;20062;-67
2022/02/04 11:52:05;;;;;;;9.57;5.18;;;;;;;;;;5132987;27;20047;-67
2022/02/04 11:54:43;;;;;;;9.43;5.53;;;;;;;;;;5133948;27;20058;-67
2022/02/04 11:57:25;;;;;;;10.88;5.88;;;;;;;;;;5132809;27;20074;-65
2022/02/04 11:59:58;;;;;;;9.23;4.80;;;;;;;;;;5132198;27;20047;-66
2022/02/04 12:02:37;;;;;;;12.70;5.38;;;;;;;;;;5132175;27;20043;-67
2022/02/04 12:05:29;;;;;;;9.50;5.47;;;;;;;;;;5132724;27;20100;-67
2022/02/04 12:08:20;;;;;;;10.77;5.07;;;;;;;;;;5131804;27;20063;-67
2022/02/04 12:10:49;;;;;;;9.05;5.20;;;;;;;;;;5121128;27;20061;-67
2022/02/04 12:13:17;;;;;;;9.60;5.00;;;;;;;;;;5131813;27;20060;-67
2022/02/04 12:15:47;;;;;;;10.32;6.07;;;;;;;;;;5131713;27;20359;-67
2022/02/04 12:18:17;;;;;;;10.90;5.67;;;;;;;;;;5131560;27;20085;-67
2022/02/04 12:20:58;;;;;;;12.35;6.25;;;;;;;;;;5131655;27;20506;-67
2022/02/04 12:23:50;;;;;;;11.45;5.93;;;;;;;;;;5131708;27;20161;-67
2022/02/04 12:26:19;;;;;;;11.52;5.90;;;;;;;;;;5131430;27;20270;-67
2022/02/04 12:28:52;;;;;;;13.02;6.57;;;;;;;;;;5131123;27;20076;-67
2022/02/04 12:31:24;;;;;;;14.20;7.80;;;;;;;;;;5131342;27;20235;-67
2022/02/04 12:33:54;;;;;;;12.88;6.60;;;;;;;;;;5131585;27;20438;-67
2022/02/04 12:36:23;;;;;;;11.35;6.20;;;;;;;;;;5131423;27;20139;-67
2022/02/04 12:38:53;;;;;;;14.00;7.18;;;;;;;;;;5124736;27;20047;-66
2022/02/04 12:41:26;;;;;;;13.02;7.00;;;;;;;;;;5119633;27;20043;-66
2022/02/04 12:43:55;;;;;;;14.52;7.05;;;;;;;;;;5118131;27;20054;-67
2022/02/04 12:46:23;;;;;;;14.05;6.35;;;;;;;;;;5119736;27;20036;-67
2022/02/04 12:49:02;;;;;;;14.85;7.97;;;;;;;;;;5119664;27;20078;-66
2022/02/04 12:51:46;;;;;;;13.07;8.30;;;;;;;;;;5120814;28;20043;-66
2022/02/04 12:54:31;;;;;;;14.15;8.00;;;;;;;;;;5131643;28;20078;-67
2022/02/04 12:57:29;;;;;;;14.35;8.02;;;;;;;;;;5117119;28;20047;-67
2022/02/04 13:00:01;;;;;;;15.20;8.15;;;;;;;;;;5121197;28;20107;-66
2022/02/04 13:02:48;;;;;;;15.55;7.75;;;;;;;;;;5120815;28;20138;-66
2022/02/04 13:08:12;;;;;;;12.80;7.45;;;;;;;;;;5131065;27;20058;-67
2022/02/04 13:10:41;;;;;;;13.85;7.03;;;;;;;;;;5121208;28;20122;-66
2022/02/04 13:13:10;;;;;;;13.82;7.78;;;;;;;;;;5118923;27;20050;-66
2022/02/04 13:15:39;;;;;;;13.13;7.93;;;;;;;;;;5122147;28;20055;-66
2022/02/04 13:18:07;;;;;;;13.40;7.40;;;;;;;;;;5118814;28;20046;-66
2022/02/04 13:20:36;;;;;;;13.48;7.25;;;;;;;;;;5116934;28;20578;-66
2022/02/04 13:23:07;;;;;;;17.13;8.18;;;;;;;;;;5126960;28;20122;-66
2022/02/04 13:25:34;;;;;;;;;;;;;;;;;;5131376;28;20170;-67
2022/02/04 13:28:12;;;;;;;15.95;7.60;;;;;;;;;;5119861;28;19919;-66
2022/02/04 13:30:48;;;;;;;16.00;8.18;;;;;;;;;;5115714;27;20048;-70
2022/02/04 13:33:20;;;;;;;13.18;7.60;;;;;;;;;;5114276;28;20484;-65
2022/02/04 13:35:58;;;;;;;14.13;7.95;;;;;;;;;;5118407;28;20039;-68
2022/02/04 13:38:32;;;;;;;15.18;7.70;;;;;;;;;;5120068;27;20714;-67
2022/02/04 13:41:07;;;;;;;14.70;8.57;;;;;;;;;;5127108;27;20055;-67
2022/02/04 13:43:43;;;;;;;15.55;8.70;;;;;;;;;;5134043;27;20138;-66
2022/02/04 13:46:19;;;;;;;13.48;8.35;;;;;;;;;;5122479;27;20130;-66
2022/02/04 13:51:48;;;;;;;13.23;7.88;;;;;;;;;;5122533;27;20043;-66
2022/02/04 13:54:37;;;;;;;14.87;8.17;;;;;;;;;;5128937;27;20096;-67
2022/02/04 13:57:27;;;;;;;13.55;8.25;;;;;;;;;;5113954;28;20425;-65
2022/02/04 14:00:17;;;;;;;11.80;8.05;;;;;;;;;;5119125;27;20062;-67
2022/02/04 14:02:48;;;;;;;17.92;8.18;;;;;;;;;;5124808;27;20051;-66
2022/02/04 14:05:25;;;;;;;13.05;7.85;;;;;;;;;;5125586;27;20125;-66
2022/02/04 14:07:55;;;;;;;12.95;7.85;;;;;;;;;;5124022;27;20489;-67
2022/02/04 14:10:28;;;;;;;13.07;7.15;;;;;;;;;;5122751;27;20504;-66
2022/02/04 14:13:20;;;;;;;11.63;6.72;;;;;;;;;;5122359;27;20061;-67
2022/02/04 14:15:52;;;;;;;13.20;7.30;;;;;;;;;;5119179;27;20135;-66
2022/02/04 14:18:19;;;;;;;13.48;7.15;;;;;;;;;;5131199;27;20440;-67
2022/02/04 14:20:46;;;;;;;10.98;6.70;;;;;;;;;;5134294;27;20503;-67
2022/02/04 14:23:13;;;;;;;12.10;6.65;;;;;;;;;;5133839;27;20148;-66
2022/02/04 14:25:47;;;;;;;13.18;7.05;;;;;;;;;;5133764;27;20057;-66
2022/02/04 14:28:18;;;;;;;13.15;6.07;;;;;;;;;;5133401;27;20057;-66
2022/02/04 14:30:45;;;;;;;11.52;5.97;;;;;;;;;;5128381;27;20056;-67
2022/02/04 14:33:34;;;;;;;10.55;6.55;;;;;;;;;;5121728;27;20054;-66
2022/02/04 14:36:06;;;;;;;10.13;5.88;;;;;;;;;;5123456;27;20036;-66
2022/02/04 14:52:35;;;;;;;10.45;5.68;;;;;;;;;;5077644;28;20051;-67
2022/02/04 15:00:40;;;;;;;9.68;5.30;;;;;;;;;;5112595;28;20547;-66
2022/02/04 15:06:01;;;;;;;7.50;4.25;;;;;;;;;;5112387;27;20054;-66
2022/02/04 15:08:28;;;;;;;8.57;4.75;;;;;;;;;;5126485;27;20113;-66
2022/02/04 15:10:59;;;;;;;7.90;4.85;;;;;;;;;;5121289;27;20051;-66
2022/02/04 15:13:26;;;;;;;10.30;5.32;;;;;;;;;;5123109;27;20073;-67
2022/02/04 15:15:53;;;;;;;9.18;4.93;;;;;;;;;;5125225;27;20567;-66
2022/02/04 15:18:20;;;;;;;7.63;5.15;;;;;;;;;;5120884;27;20100;-67
2022/02/04 15:20:48;;;;;;;7.72;4.78;;;;;;;;;;5122901;27;20047;-66
2022/02/04 15:23:16;;;;;;;9.77;5.78;;;;;;;;;;5121841;27;20054;-67
2022/02/04 15:25:45;;;;;;;8.45;4.85;;;;;;;;;;5121364;27;20145;-67
2022/02/04 15:28:31;;;;;;;7.15;3.65;;;;;;;;;;5121036;27;20051;-66
2022/02/04 15:30:58;;;;;;;7.57;4.40;;;;;;;;;;5126867;27;20111;-66
2022/02/04 15:33:29;;;;;;;9.60;5.60;;;;;;;;;;5132556;27;20051;-67
2022/02/04 15:35:57;;;;;;;11.23;6.30;;;;;;;;;;5129643;27;20407;-66
2022/02/04 15:38:26;;;;;;;7.78;5.13;;;;;;;;;;5123301;27;20355;-67
2022/02/04 15:40:53;;;;;;;9.25;5.03;;;;;;;;;;5120890;27;20150;-66
2022/02/04 15:43:20;;;;;;;7.65;4.85;;;;;;;;;;5114697;27;20047;-66
2022/02/04 15:46:16;;;;;;;8.27;5.05;;;;;;;;;;5115168;27;20049;-67
2022/02/04 15:49:05;;;;;;;9.25;5.03;;;;;;;;;;5132179;27;20054;-67
2022/02/04 15:51:46;;;;;;;10.18;5.60;;;;;;;;;;5131956;27;20273;-66
2022/02/04 15:54:36;;;;;;;;;;;;;;;;;;5132326;27;20047;-67
2022/02/04 15:57:18;;;;;;;9.00;4.63;;;;;;;;;;5122642;27;19920;-67
2022/02/04 16:02:39;;;;;;;8.80;5.53;;;;;;;;;;5109899;27;20051;-67
2022/02/04 16:05:08;;;;;;;9.05;5.25;;;;;;;;;;5131927;27;20047;-66
2022/02/04 16:07:38;;;;;;;8.13;4.82;;;;;;;;;;5132052;27;20055;-66
2022/02/04 16:10:19;;;;;;;9.23;5.05;;;;;;;;;;5132008;27;20043;-67
2022/02/04 16:12:53;;;;;;;;;;;;;;;;;;5125948;27;20303;-67
2022/02/04 16:15:33;;;;;;;8.10;4.63;;;;;;;;;;5123465;27;19919;-67
2022/02/04 16:18:04;;;;;;;8.02;4.43;;;;;;;;;;5122651;27;20039;-66
2022/02/04 16:20:53;;;;;;;8.25;4.43;;;;;;;;;;5125051;27;20054;-67
2022/02/04 16:23:30;;;;;;;9.57;4.85;;;;;;;;;;5122194;27;20427;-67
2022/02/04 16:26:11;;;;;;;8.73;4.72;;;;;;;;;;5121595;27;20052;-66
2022/02/04 16:28:38;;;;;;;10.60;5.30;;;;;;;;;;5120524;27;20047;-66
2022/02/04 16:31:06;;;;;;;9.48;4.78;;;;;;;;;;5128739;27;20496;-67
2022/02/04 16:33:33;;;;;;;10.20;5.32;;;;;;;;;;5128452;27;20484;-67
2022/02/04 16:36:03;;;;;;;8.95;4.20;;;;;;;;;;5119786;27;20057;-66
2022/02/04 16:38:32;;;;;;;8.37;4.63;;;;;;;;;;5111119;28;20075;-66
2022/02/04 16:41:04;;;;;;;8.93;5.43;;;;;;;;;;5127932;27;20510;-66
2022/02/04 16:43:32;;;;;;;7.35;4.15;;;;;;;;;;5130699;27;20056;-66
2022/02/04 16:46:02;;;;;;;11.20;4.72;;;;;;;;;;5131771;27;20403;-68
2022/02/04 16:48:29;;;;;;;6.63;4.28;;;;;;;;;;5130926;27;20138;-66
2022/02/04 16:50:55;;;;;;;6.75;4.25;;;;;;;;;;5131539;27;20073;-67
2022/02/04 16:53:23;;;;;;;7.47;4.20;;;;;;;;;;5131363;27;20046;-67
2022/02/04 16:55:52;;;;;;;7.75;4.28;;;;;;;;;;5131823;28;20547;-67
2022/02/04 16:58:19;;;;;;;14.43;8.65;;;;;;;;;;5131466;28;20053;-67
2022/02/04 17:00:46;;;;;;;9.18;5.55;;;;;;;;;;5131907;28;20043;-67
2022/02/04 17:03:13;;;;;;;7.70;4.50;;;;;;;;;;5132089;28;20128;-67
2022/02/04 17:05:50;;;;;;;7.22;4.30;;;;;;;;;;5131174;27;20051;-67
2022/02/04 17:08:31;;;;;;;9.00;4.28;;;;;;;;;;5130960;28;20083;-67
2022/02/04 17:11:01;;;;;;;9.50;4.65;;;;;;;;;;5131071;27;20108;-66
2022/02/04 17:13:29;;;;;;;8.70;5.23;;;;;;;;;;5132784;27;20087;-67
2022/02/04 17:15:56;;;;;;;11.00;5.50;;;;;;;;;;5135958;27;20413;-66
2022/02/04 17:18:24;;;;;;;10.55;5.75;;;;;;;;;;5135060;27;20495;-67
2022/02/04 17:20:51;;;;;;;10.38;5.85;;;;;;;;;;5135192;27;20047;-67
2022/02/04 17:23:27;;;;;;;11.95;6.47;;;;;;;;;;5136037;27;20356;-67
2022/02/04 17:25:55;;;;;;;11.50;6.43;;;;;;;;;;5136345;27;20113;-67
2022/02/04 17:28:27;;;;;;;16.38;6.97;;;;;;;;;;5136302;27;20369;-66
2022/02/04 17:30:55;;;;;;;14.43;8.05;;;;;;;;;;5136117;27;20043;-66
2022/02/04 17:33:22;;;;;;;13.73;8.15;;;;;;;;;;5136023;27;20599;-67
2022/02/04 17:35:49;;;;;;;12.85;7.40;;;;;;;;;;5135646;27;20415;-66
2022/02/04 17:38:16;;;;;;;18.05;9.43;;;;;;;;;;5134660;27;20054;-66
2022/02/04 17:40:44;;;;;;;11.98;7.22;;;;;;;;;;5136234;27;20059;-66
2022/02/04 17:43:11;;;;;;;13.80;8.07;;;;;;;;;;5135702;27;20062;-66
2022/02/04 17:45:40;;;;;;;10.57;6.70;;;;;;;;;;5132624;27;20056;-66
2022/02/04 17:48:10;;;;;;;12.43;6.65;;;;;;;;;;5124186;27;20071;-66
2022/02/04 17:50:48;;;;;;;11.68;6.75;;;;;;;;;;5136017;27;20500;-67
2022/02/04 17:53:20;;;;;;;11.60;7.10;;;;;;;;;;5135680;27;20055;-66
2022/02/04 17:55:53;;;;;;;12.73;7.13;;;;;;;;;;5135506;27;20355;-67
2022/02/04 17:58:30;;;;;;;9.75;5.82;;;;;;;;;;5134963;27;20054;-66
2022/02/04 18:01:23;;;;;;;9.63;5.72;;;;;;;;;;5136226;27;20113;-66
2022/02/04 18:09:18;;;;;;;11.50;6.68;;;;;;;;;;5135168;27;20179;-67
2022/02/04 18:11:45;;;;;;;11.60;6.47;;;;;;;;;;5134863;27;20053;-66
2022/02/04 18:14:12;;;;;;;10.60;6.30;;;;;;;;;;5134879;27;20411;-67
2022/02/04 18:16:41;;;;;;;11.48;5.85;;;;;;;;;;5135495;27;20134;-67
2022/02/04 18:19:09;;;;;;;10.02;6.03;;;;;;;;;;5134577;27;20393;-67
2022/02/04 18:21:36;;;;;;;10.27;5.70;;;;;;;;;;5135055;27;20055;-67
2022/02/04 18:24:03;;;;;;;10.43;6.25;;;;;;;;;;5134415;27;20103;-66
2022/02/04 18:26:30;;;;;;;11.07;5.93;;;;;;;;;;5134712;27;20047;-65
2022/02/04 18:28:57;;;;;;;10.27;5.97;;;;;;;;;;5134456;27;20053;-66
2022/02/04 18:31:24;;;;;;;8.73;5.85;;;;;;;;;;5135205;27;20075;-67
2022/02/04 18:33:52;;;;;;;12.23;5.82;;;;;;;;;;5134759;27;20072;-66
2022/02/04 18:36:19;;;;;;;10.07;5.88;;;;;;;;;;5133808;27;20047;-66
2022/02/04 18:38:50;;;;;;;9.10;5.43;;;;;;;;;;5116252;27;20165;-66
2022/02/04 18:44:14;;;;;;;9.55;5.40;;;;;;;;;;5050570;28;20090;-66
2022/02/04 18:46:55;;;;;;;9.70;5.18;;;;;;;;;;5098348;28;20090;-66
2022/02/04 18:49:33;;;;;;;9.35;4.65;;;;;;;;;;5113863;28;20042;-66
2022/02/04 18:52:18;;;;;;;9.30;4.50;;;;;;;;;;5114823;28;20063;-67
2022/02/04 18:55:06;;;;;;;9.10;4.75;;;;;;;;;;5113650;28;20440;-66
2022/02/04 18:57:33;;;;;;;7.38;3.95;;;;;;;;;;5113562;28;20055;-67
2022/02/04 19:00:08;;;;;;;8.00;3.70;;;;;;;;;;5113576;28;20419;-66
2022/02/04 19:02:38;;;;;;;6.30;3.08;;;;;;;;;;5113758;28;20056;-65
2022/02/04 19:05:12;;;;;;;5.40;2.83;;;;;;;;;;5132179;27;20051;-66
2022/02/04 19:07:44;;;;;;;6.13;2.75;;;;;;;;;;5133300;27;20492;-67
2022/02/04 19:10:11;;;;;;;3.97;2.05;;;;;;;;;;5134010;27;20054;-66
2022/02/04 19:12:45;;;;;;;3.85;1.95;;;;;;;;;;5133191;27;20484;-65
2022/02/04 19:15:43;;;;;;;3.47;1.92;;;;;;;;;;5138404;27;20080;-66
2022/02/04 19:18:16;;;;;;;4.40;1.85;;;;;;;;;;5133736;27;20051;-67